sensor_id;sensor_type;location;lat;lon;timestamp;P1;durP1;ratioP1;P2;durP2;ratioP2
7450;SDS011;3767;42.688;23.360;2022-10-16T00:01:32;13.23;;;8.07;;
7450;SDS011;3767;42.688;23.360;2022-10-16T00:03:59;11.17;;;8.00;;
7450;SDS011;3767;42.688;23.360;2022-10-16T00:06:26;12.73;;;8.10;;
7450;SDS011;3767;42.688;23.360;2022-10-16T00:08:53;10.57;;;7.60;;
7450;SDS011;3767;42.688;23.360;2022-10-16T00:11:20;13.40;;;7.63;;
7450;SDS011;3767;42.688;23.360;2022-10-16T00:13:48;10.70;;;7.63;;
7450;SDS011;3767;42.688;23.360;2022-10-16T00:16:16;11.03;;;7.90;;
7450;SDS011;3767;42.688;23.360;2022-10-16T00:18:43;12.07;;;7.87;;
7450;SDS011;3767;42.688;23.360;2022-10-16T00:21:10;8.57;;;7.00;;
7450;SDS011;3767;42.688;23.360;2022-10-16T00:23:37;9.17;;;7.33;;
7450;SDS011;3767;42.688;23.360;2022-10-16T00:26:04;12.67;;;7.43;;
7450;SDS011;3767;42.688;23.360;2022-10-16T00:28:31;10.43;;;7.73;;
7450;SDS011;3767;42.688;23.360;2022-10-16T00:30:58;13.63;;;6.60;;
7450;SDS011;3767;42.688;23.360;2022-10-16T00:33:26;11.00;;;7.30;;
7450;SDS011;3767;42.688;23.360;2022-10-16T00:35:52;8.73;;;6.93;;
7450;SDS011;3767;42.688;23.360;2022-10-16T00:38:19;7.90;;;7.00;;
7450;SDS011;3767;42.688;23.360;2022-10-16T00:40:45;9.53;;;7.17;;
7450;SDS011;3767;42.688;23.360;2022-10-16T00:43:12;9.17;;;7.00;;
7450;SDS011;3767;42.688;23.360;2022-10-16T00:45:39;11.43;;;7.13;;
7450;SDS011;3767;42.688;23.360;2022-10-16T00:48:06;8.97;;;7.00;;
7450;SDS011;3767;42.688;23.360;2022-10-16T00:50:38;9.73;;;7.57;;
7450;SDS011;3767;42.688;23.360;2022-10-16T00:53:08;12.67;;;7.40;;
7450;SDS011;3767;42.688;23.360;2022-10-16T00:55:34;11.97;;;8.20;;
7450;SDS011;3767;42.688;23.360;2022-10-16T00:58:02;11.93;;;7.90;;
7450;SDS011;3767;42.688;23.360;2022-10-16T01:00:28;11.30;;;8.00;;
7450;SDS011;3767;42.688;23.360;2022-10-16T01:02:55;12.97;;;7.60;;
7450;SDS011;3767;42.688;23.360;2022-10-16T01:05:22;11.63;;;7.97;;
7450;SDS011;3767;42.688;23.360;2022-10-16T01:07:53;12.20;;;8.37;;
7450;SDS011;3767;42.688;23.360;2022-10-16T01:10:25;10.63;;;8.17;;
7450;SDS011;3767;42.688;23.360;2022-10-16T01:12:54;16.93;;;9.03;;
7450;SDS011;3767;42.688;23.360;2022-10-16T01:15:24;17.13;;;8.60;;
7450;SDS011;3767;42.688;23.360;2022-10-16T01:17:53;10.33;;;7.90;;
7450;SDS011;3767;42.688;23.360;2022-10-16T01:20:24;15.00;;;9.50;;
7450;SDS011;3767;42.688;23.360;2022-10-16T01:23:01;12.77;;;9.20;;
7450;SDS011;3767;42.688;23.360;2022-10-16T01:25:31;12.90;;;9.20;;
7450;SDS011;3767;42.688;23.360;2022-10-16T01:28:04;14.03;;;9.17;;
7450;SDS011;3767;42.688;23.360;2022-10-16T01:30:32;14.60;;;10.27;;
7450;SDS011;3767;42.688;23.360;2022-10-16T01:33:01;15.43;;;10.73;;
7450;SDS011;3767;42.688;23.360;2022-10-16T01:35:30;19.90;;;10.90;;
7450;SDS011;3767;42.688;23.360;2022-10-16T01:37:59;19.27;;;11.07;;
7450;SDS011;3767;42.688;23.360;2022-10-16T01:40:27;17.73;;;10.23;;
7450;SDS011;3767;42.688;23.360;2022-10-16T01:42:55;18.57;;;10.33;;
7450;SDS011;3767;42.688;23.360;2022-10-16T01:45:24;17.50;;;11.10;;
7450;SDS011;3767;42.688;23.360;2022-10-16T01:47:50;17.07;;;9.80;;
7450;SDS011;3767;42.688;23.360;2022-10-16T01:50:18;17.07;;;9.83;;
7450;SDS011;3767;42.688;23.360;2022-10-16T01:52:47;14.17;;;9.77;;
7450;SDS011;3767;42.688;23.360;2022-10-16T01:55:16;17.93;;;9.77;;
7450;SDS011;3767;42.688;23.360;2022-10-16T01:57:44;16.70;;;10.67;;
7450;SDS011;3767;42.688;23.360;2022-10-16T02:00:12;14.03;;;9.83;;
7450;SDS011;3767;42.688;23.360;2022-10-16T02:02:42;14.77;;;9.20;;
7450;SDS011;3767;42.688;23.360;2022-10-16T02:05:12;14.60;;;8.90;;
7450;SDS011;3767;42.688;23.360;2022-10-16T02:07:41;14.67;;;9.67;;
7450;SDS011;3767;42.688;23.360;2022-10-16T02:10:08;17.23;;;9.00;;
7450;SDS011;3767;42.688;23.360;2022-10-16T02:12:35;14.50;;;9.73;;
7450;SDS011;3767;42.688;23.360;2022-10-16T02:15:04;11.77;;;8.73;;
7450;SDS011;3767;42.688;23.360;2022-10-16T02:17:31;13.10;;;9.03;;
7450;SDS011;3767;42.688;23.360;2022-10-16T02:19:59;15.73;;;8.67;;
7450;SDS011;3767;42.688;23.360;2022-10-16T02:22:27;12.13;;;8.73;;
7450;SDS011;3767;42.688;23.360;2022-10-16T02:24:56;14.00;;;8.90;;
7450;SDS011;3767;42.688;23.360;2022-10-16T02:27:25;11.93;;;8.13;;
7450;SDS011;3767;42.688;23.360;2022-10-16T02:29:53;11.07;;;8.00;;
7450;SDS011;3767;42.688;23.360;2022-10-16T02:32:24;11.47;;;8.33;;
7450;SDS011;3767;42.688;23.360;2022-10-16T02:34:53;12.57;;;8.57;;
7450;SDS011;3767;42.688;23.360;2022-10-16T02:37:21;12.67;;;8.17;;
7450;SDS011;3767;42.688;23.360;2022-10-16T02:39:48;10.60;;;8.17;;
7450;SDS011;3767;42.688;23.360;2022-10-16T02:42:14;10.17;;;8.50;;
7450;SDS011;3767;42.688;23.360;2022-10-16T02:44:41;12.53;;;8.03;;
7450;SDS011;3767;42.688;23.360;2022-10-16T02:47:08;11.73;;;7.97;;
7450;SDS011;3767;42.688;23.360;2022-10-16T02:49:34;11.07;;;7.23;;
7450;SDS011;3767;42.688;23.360;2022-10-16T02:52:01;9.90;;;7.53;;
7450;SDS011;3767;42.688;23.360;2022-10-16T02:54:28;13.77;;;7.47;;
7450;SDS011;3767;42.688;23.360;2022-10-16T02:56:55;9.90;;;6.83;;
7450;SDS011;3767;42.688;23.360;2022-10-16T02:59:21;10.20;;;6.87;;
7450;SDS011;3767;42.688;23.360;2022-10-16T03:01:48;10.37;;;6.93;;
7450;SDS011;3767;42.688;23.360;2022-10-16T03:04:14;9.77;;;6.80;;
7450;SDS011;3767;42.688;23.360;2022-10-16T03:06:41;7.73;;;6.10;;
7450;SDS011;3767;42.688;23.360;2022-10-16T03:09:07;10.13;;;6.23;;
7450;SDS011;3767;42.688;23.360;2022-10-16T03:11:35;7.63;;;6.20;;
7450;SDS011;3767;42.688;23.360;2022-10-16T03:14:02;10.17;;;5.83;;
7450;SDS011;3767;42.688;23.360;2022-10-16T03:16:28;6.83;;;5.87;;
7450;SDS011;3767;42.688;23.360;2022-10-16T03:18:55;8.63;;;5.70;;
7450;SDS011;3767;42.688;23.360;2022-10-16T03:21:22;6.60;;;5.87;;
7450;SDS011;3767;42.688;23.360;2022-10-16T03:23:48;8.30;;;6.40;;
7450;SDS011;3767;42.688;23.360;2022-10-16T03:26:14;9.53;;;6.50;;
7450;SDS011;3767;42.688;23.360;2022-10-16T03:28:42;9.93;;;6.80;;
7450;SDS011;3767;42.688;23.360;2022-10-16T03:31:09;9.63;;;6.77;;
7450;SDS011;3767;42.688;23.360;2022-10-16T03:33:35;12.60;;;6.73;;
7450;SDS011;3767;42.688;23.360;2022-10-16T03:36:02;9.83;;;6.97;;
7450;SDS011;3767;42.688;23.360;2022-10-16T03:38:28;10.47;;;6.83;;
7450;SDS011;3767;42.688;23.360;2022-10-16T03:40:55;10.73;;;6.40;;
7450;SDS011;3767;42.688;23.360;2022-10-16T03:43:21;9.97;;;6.83;;
7450;SDS011;3767;42.688;23.360;2022-10-16T03:45:51;8.07;;;6.57;;
7450;SDS011;3767;42.688;23.360;2022-10-16T03:48:17;8.37;;;6.60;;
7450;SDS011;3767;42.688;23.360;2022-10-16T03:50:44;8.23;;;6.43;;
7450;SDS011;3767;42.688;23.360;2022-10-16T03:53:11;11.43;;;6.63;;
7450;SDS011;3767;42.688;23.360;2022-10-16T03:55:37;8.97;;;6.83;;
7450;SDS011;3767;42.688;23.360;2022-10-16T03:58:04;10.30;;;6.63;;
7450;SDS011;3767;42.688;23.360;2022-10-16T04:00:30;9.50;;;6.33;;
7450;SDS011;3767;42.688;23.360;2022-10-16T04:02:58;7.93;;;6.50;;
7450;SDS011;3767;42.688;23.360;2022-10-16T04:05:25;6.63;;;5.93;;
7450;SDS011;3767;42.688;23.360;2022-10-16T04:07:51;7.50;;;6.47;;
7450;SDS011;3767;42.688;23.360;2022-10-16T04:10:18;8.23;;;6.67;;
7450;SDS011;3767;42.688;23.360;2022-10-16T04:12:45;7.23;;;6.07;;
7450;SDS011;3767;42.688;23.360;2022-10-16T04:15:11;6.67;;;5.83;;
7450;SDS011;3767;42.688;23.360;2022-10-16T04:17:38;7.87;;;6.10;;
7450;SDS011;3767;42.688;23.360;2022-10-16T04:20:06;7.40;;;6.50;;
7450;SDS011;3767;42.688;23.360;2022-10-16T04:22:33;11.00;;;7.77;;
7450;SDS011;3767;42.688;23.360;2022-10-16T04:24:59;9.20;;;7.13;;
7450;SDS011;3767;42.688;23.360;2022-10-16T04:27:25;10.40;;;6.83;;
7450;SDS011;3767;42.688;23.360;2022-10-16T04:29:53;10.23;;;6.83;;
7450;SDS011;3767;42.688;23.360;2022-10-16T04:32:19;6.67;;;5.93;;
7450;SDS011;3767;42.688;23.360;2022-10-16T04:34:46;9.50;;;6.90;;
7450;SDS011;3767;42.688;23.360;2022-10-16T04:37:14;8.73;;;6.73;;
7450;SDS011;3767;42.688;23.360;2022-10-16T04:39:40;10.57;;;7.47;;
7450;SDS011;3767;42.688;23.360;2022-10-16T04:42:07;8.03;;;6.63;;
7450;SDS011;3767;42.688;23.360;2022-10-16T04:44:33;9.57;;;7.03;;
7450;SDS011;3767;42.688;23.360;2022-10-16T04:47:00;8.63;;;6.90;;
7450;SDS011;3767;42.688;23.360;2022-10-16T04:49:26;16.27;;;9.30;;
7450;SDS011;3767;42.688;23.360;2022-10-16T04:51:53;13.23;;;8.53;;
7450;SDS011;3767;42.688;23.360;2022-10-16T04:54:21;14.50;;;9.17;;
7450;SDS011;3767;42.688;23.360;2022-10-16T04:56:47;13.23;;;8.83;;
7450;SDS011;3767;42.688;23.360;2022-10-16T04:59:15;16.03;;;9.80;;
7450;SDS011;3767;42.688;23.360;2022-10-16T05:01:42;14.93;;;9.07;;
7450;SDS011;3767;42.688;23.360;2022-10-16T05:04:09;13.00;;;9.43;;
7450;SDS011;3767;42.688;23.360;2022-10-16T05:06:35;11.80;;;8.13;;
7450;SDS011;3767;42.688;23.360;2022-10-16T05:09:03;11.67;;;8.10;;
7450;SDS011;3767;42.688;23.360;2022-10-16T05:11:31;14.40;;;8.10;;
7450;SDS011;3767;42.688;23.360;2022-10-16T05:13:58;14.17;;;8.00;;
7450;SDS011;3767;42.688;23.360;2022-10-16T05:16:24;15.67;;;8.47;;
7450;SDS011;3767;42.688;23.360;2022-10-16T05:18:51;15.30;;;8.30;;
7450;SDS011;3767;42.688;23.360;2022-10-16T05:21:17;16.70;;;8.20;;
7450;SDS011;3767;42.688;23.360;2022-10-16T05:23:44;14.23;;;8.07;;
7450;SDS011;3767;42.688;23.360;2022-10-16T05:26:10;13.77;;;8.90;;
7450;SDS011;3767;42.688;23.360;2022-10-16T05:28:38;17.70;;;9.67;;
7450;SDS011;3767;42.688;23.360;2022-10-16T05:31:05;17.13;;;9.03;;
7450;SDS011;3767;42.688;23.360;2022-10-16T05:33:32;12.67;;;8.53;;
7450;SDS011;3767;42.688;23.360;2022-10-16T05:36:00;14.37;;;8.17;;
7450;SDS011;3767;42.688;23.360;2022-10-16T05:38:27;11.50;;;7.80;;
7450;SDS011;3767;42.688;23.360;2022-10-16T05:40:53;14.93;;;8.13;;
7450;SDS011;3767;42.688;23.360;2022-10-16T05:43:21;14.33;;;7.93;;
7450;SDS011;3767;42.688;23.360;2022-10-16T05:45:54;12.27;;;8.13;;
7450;SDS011;3767;42.688;23.360;2022-10-16T05:48:21;13.73;;;8.23;;
7450;SDS011;3767;42.688;23.360;2022-10-16T05:50:48;15.97;;;9.17;;
7450;SDS011;3767;42.688;23.360;2022-10-16T05:53:14;12.27;;;8.90;;
7450;SDS011;3767;42.688;23.360;2022-10-16T05:55:41;13.63;;;8.87;;
7450;SDS011;3767;42.688;23.360;2022-10-16T05:58:07;15.90;;;11.43;;
7450;SDS011;3767;42.688;23.360;2022-10-16T06:00:34;12.77;;;9.30;;
7450;SDS011;3767;42.688;23.360;2022-10-16T06:03:02;14.27;;;8.80;;
7450;SDS011;3767;42.688;23.360;2022-10-16T06:05:29;15.40;;;8.60;;
7450;SDS011;3767;42.688;23.360;2022-10-16T06:07:56;15.73;;;8.50;;
7450;SDS011;3767;42.688;23.360;2022-10-16T06:10:22;10.20;;;7.70;;
7450;SDS011;3767;42.688;23.360;2022-10-16T06:12:49;12.93;;;9.17;;
7450;SDS011;3767;42.688;23.360;2022-10-16T06:15:15;11.83;;;8.40;;
7450;SDS011;3767;42.688;23.360;2022-10-16T06:17:42;12.23;;;8.73;;
7450;SDS011;3767;42.688;23.360;2022-10-16T06:20:10;13.10;;;8.57;;
7450;SDS011;3767;42.688;23.360;2022-10-16T06:22:36;14.47;;;9.27;;
7450;SDS011;3767;42.688;23.360;2022-10-16T06:25:03;14.37;;;8.80;;
7450;SDS011;3767;42.688;23.360;2022-10-16T06:27:29;11.43;;;8.33;;
7450;SDS011;3767;42.688;23.360;2022-10-16T06:29:56;11.13;;;8.73;;
7450;SDS011;3767;42.688;23.360;2022-10-16T06:32:22;17.13;;;9.60;;
7450;SDS011;3767;42.688;23.360;2022-10-16T06:34:49;17.27;;;10.83;;
7450;SDS011;3767;42.688;23.360;2022-10-16T06:37:17;19.20;;;10.50;;
7450;SDS011;3767;42.688;23.360;2022-10-16T06:39:43;19.53;;;11.07;;
7450;SDS011;3767;42.688;23.360;2022-10-16T06:42:10;15.33;;;10.17;;
7450;SDS011;3767;42.688;23.360;2022-10-16T06:44:36;15.37;;;10.23;;
7450;SDS011;3767;42.688;23.360;2022-10-16T06:47:03;23.33;;;12.20;;
7450;SDS011;3767;42.688;23.360;2022-10-16T06:49:29;17.27;;;10.80;;
7450;SDS011;3767;42.688;23.360;2022-10-16T06:51:56;13.77;;;9.03;;
7450;SDS011;3767;42.688;23.360;2022-10-16T06:54:23;15.47;;;9.17;;
7450;SDS011;3767;42.688;23.360;2022-10-16T06:56:50;15.63;;;9.27;;
7450;SDS011;3767;42.688;23.360;2022-10-16T06:59:19;12.70;;;8.37;;
7450;SDS011;3767;42.688;23.360;2022-10-16T07:01:45;11.33;;;7.73;;
7450;SDS011;3767;42.688;23.360;2022-10-16T07:04:12;13.40;;;8.63;;
7450;SDS011;3767;42.688;23.360;2022-10-16T07:06:38;10.53;;;8.10;;
7450;SDS011;3767;42.688;23.360;2022-10-16T07:09:06;12.53;;;7.20;;
7450;SDS011;3767;42.688;23.360;2022-10-16T07:11:35;13.77;;;7.60;;
7450;SDS011;3767;42.688;23.360;2022-10-16T07:14:02;9.53;;;7.30;;
7450;SDS011;3767;42.688;23.360;2022-10-16T07:16:29;10.23;;;7.60;;
7450;SDS011;3767;42.688;23.360;2022-10-16T07:18:56;10.63;;;6.80;;
7450;SDS011;3767;42.688;23.360;2022-10-16T07:21:24;7.20;;;6.23;;
7450;SDS011;3767;42.688;23.360;2022-10-16T07:23:51;8.37;;;6.50;;
7450;SDS011;3767;42.688;23.360;2022-10-16T07:26:18;8.73;;;6.43;;
7450;SDS011;3767;42.688;23.360;2022-10-16T07:28:46;9.73;;;7.10;;
7450;SDS011;3767;42.688;23.360;2022-10-16T07:31:13;7.63;;;6.83;;
7450;SDS011;3767;42.688;23.360;2022-10-16T07:33:40;8.63;;;6.80;;
7450;SDS011;3767;42.688;23.360;2022-10-16T07:36:06;7.67;;;5.70;;
7450;SDS011;3767;42.688;23.360;2022-10-16T07:38:33;6.80;;;6.13;;
7450;SDS011;3767;42.688;23.360;2022-10-16T07:41:00;7.10;;;6.40;;
7450;SDS011;3767;42.688;23.360;2022-10-16T07:43:27;7.97;;;6.20;;
7450;SDS011;3767;42.688;23.360;2022-10-16T07:45:55;8.83;;;5.90;;
7450;SDS011;3767;42.688;23.360;2022-10-16T07:48:22;6.50;;;5.87;;
7450;SDS011;3767;42.688;23.360;2022-10-16T07:50:49;9.23;;;6.17;;
7450;SDS011;3767;42.688;23.360;2022-10-16T07:53:15;8.43;;;6.00;;
7450;SDS011;3767;42.688;23.360;2022-10-16T07:55:42;6.47;;;5.78;;
7450;SDS011;3767;42.688;23.360;2022-10-16T07:58:08;7.57;;;6.20;;
7450;SDS011;3767;42.688;23.360;2022-10-16T08:00:35;7.73;;;6.23;;
7450;SDS011;3767;42.688;23.360;2022-10-16T08:03:03;7.40;;;6.70;;
7450;SDS011;3767;42.688;23.360;2022-10-16T08:05:31;13.60;;;7.65;;
7450;SDS011;3767;42.688;23.360;2022-10-16T08:07:58;8.93;;;7.30;;
7450;SDS011;3767;42.688;23.360;2022-10-16T08:10:25;12.95;;;6.32;;
7450;SDS011;3767;42.688;23.360;2022-10-16T08:12:52;6.82;;;6.13;;
7450;SDS011;3767;42.688;23.360;2022-10-16T08:15:19;7.25;;;6.55;;
7450;SDS011;3767;42.688;23.360;2022-10-16T08:17:53;11.10;;;9.13;;
7450;SDS011;3767;42.688;23.360;2022-10-16T08:20:21;13.20;;;9.25;;
7450;SDS011;3767;42.688;23.360;2022-10-16T08:22:47;11.30;;;10.00;;
7450;SDS011;3767;42.688;23.360;2022-10-16T08:25:14;10.15;;;8.57;;
7450;SDS011;3767;42.688;23.360;2022-10-16T08:27:41;6.68;;;6.03;;
7450;SDS011;3767;42.688;23.360;2022-10-16T08:30:08;9.07;;;5.32;;
7450;SDS011;3767;42.688;23.360;2022-10-16T08:32:34;6.72;;;5.95;;
7450;SDS011;3767;42.688;23.360;2022-10-16T08:35:01;8.52;;;5.60;;
7450;SDS011;3767;42.688;23.360;2022-10-16T08:37:30;8.38;;;6.72;;
7450;SDS011;3767;42.688;23.360;2022-10-16T08:39:57;6.95;;;5.50;;
7450;SDS011;3767;42.688;23.360;2022-10-16T08:42:32;4.93;;;4.53;;
7450;SDS011;3767;42.688;23.360;2022-10-16T08:47:53;8.05;;;7.25;;
7450;SDS011;3767;42.688;23.360;2022-10-16T08:50:22;5.35;;;4.70;;
7450;SDS011;3767;42.688;23.360;2022-10-16T08:52:51;5.10;;;4.35;;
7450;SDS011;3767;42.688;23.360;2022-10-16T08:55:27;6.10;;;5.28;;
7450;SDS011;3767;42.688;23.360;2022-10-16T08:57:54;4.68;;;4.28;;
7450;SDS011;3767;42.688;23.360;2022-10-16T09:00:21;5.53;;;4.43;;
7450;SDS011;3767;42.688;23.360;2022-10-16T09:02:49;4.10;;;3.80;;
7450;SDS011;3767;42.688;23.360;2022-10-16T09:05:23;4.85;;;3.85;;
7450;SDS011;3767;42.688;23.360;2022-10-16T09:07:55;4.45;;;3.88;;
7450;SDS011;3767;42.688;23.360;2022-10-16T09:10:26;3.83;;;3.63;;
7450;SDS011;3767;42.688;23.360;2022-10-16T09:12:55;3.72;;;3.53;;
7450;SDS011;3767;42.688;23.360;2022-10-16T09:15:25;4.00;;;3.70;;
7450;SDS011;3767;42.688;23.360;2022-10-16T09:17:55;5.18;;;4.35;;
7450;SDS011;3767;42.688;23.360;2022-10-16T09:20:26;3.90;;;3.60;;
7450;SDS011;3767;42.688;23.360;2022-10-16T09:22:56;4.40;;;4.00;;
7450;SDS011;3767;42.688;23.360;2022-10-16T09:25:26;4.10;;;3.90;;
7450;SDS011;3767;42.688;23.360;2022-10-16T09:27:53;5.47;;;4.32;;
7450;SDS011;3767;42.688;23.360;2022-10-16T09:30:20;4.32;;;3.92;;
7450;SDS011;3767;42.688;23.360;2022-10-16T09:32:48;7.38;;;4.20;;
7450;SDS011;3767;42.688;23.360;2022-10-16T09:35:16;3.72;;;3.47;;
7450;SDS011;3767;42.688;23.360;2022-10-16T09:37:44;5.07;;;4.10;;
7450;SDS011;3767;42.688;23.360;2022-10-16T09:40:23;5.78;;;4.22;;
7450;SDS011;3767;42.688;23.360;2022-10-16T09:42:49;4.00;;;3.78;;
7450;SDS011;3767;42.688;23.360;2022-10-16T09:45:21;5.00;;;4.65;;
7450;SDS011;3767;42.688;23.360;2022-10-16T09:47:47;5.05;;;4.65;;
7450;SDS011;3767;42.688;23.360;2022-10-16T09:50:20;6.70;;;4.00;;
7450;SDS011;3767;42.688;23.360;2022-10-16T09:52:47;7.22;;;3.45;;
7450;SDS011;3767;42.688;23.360;2022-10-16T09:55:16;3.75;;;3.40;;
7450;SDS011;3767;42.688;23.360;2022-10-16T09:57:48;4.72;;;3.30;;
7450;SDS011;3767;42.688;23.360;2022-10-16T10:00:16;3.67;;;3.40;;
7450;SDS011;3767;42.688;23.360;2022-10-16T10:02:43;4.03;;;3.65;;
7450;SDS011;3767;42.688;23.360;2022-10-16T10:05:17;3.92;;;3.20;;
7450;SDS011;3767;42.688;23.360;2022-10-16T10:07:44;4.40;;;3.10;;
7450;SDS011;3767;42.688;23.360;2022-10-16T10:10:19;4.40;;;3.08;;
7450;SDS011;3767;42.688;23.360;2022-10-16T10:12:47;3.50;;;3.00;;
7450;SDS011;3767;42.688;23.360;2022-10-16T10:15:14;4.60;;;3.75;;
7450;SDS011;3767;42.688;23.360;2022-10-16T10:17:45;5.10;;;4.50;;
7450;SDS011;3767;42.688;23.360;2022-10-16T10:20:15;4.68;;;4.43;;
7450;SDS011;3767;42.688;23.360;2022-10-16T10:22:42;5.30;;;4.80;;
7450;SDS011;3767;42.688;23.360;2022-10-16T10:25:15;4.43;;;4.03;;
7450;SDS011;3767;42.688;23.360;2022-10-16T10:27:48;4.40;;;4.15;;
7450;SDS011;3767;42.688;23.360;2022-10-16T10:30:18;4.28;;;4.00;;
7450;SDS011;3767;42.688;23.360;2022-10-16T10:32:47;4.63;;;3.53;;
7450;SDS011;3767;42.688;23.360;2022-10-16T10:35:19;3.65;;;3.45;;
7450;SDS011;3767;42.688;23.360;2022-10-16T10:37:51;3.65;;;3.45;;
7450;SDS011;3767;42.688;23.360;2022-10-16T10:40:24;3.47;;;3.30;;
7450;SDS011;3767;42.688;23.360;2022-10-16T10:42:56;4.03;;;3.67;;
7450;SDS011;3767;42.688;23.360;2022-10-16T10:45:26;4.00;;;3.70;;
7450;SDS011;3767;42.688;23.360;2022-10-16T10:48:02;7.00;;;3.50;;
7450;SDS011;3767;42.688;23.360;2022-10-16T10:50:33;4.70;;;3.38;;
7450;SDS011;3767;42.688;23.360;2022-10-16T10:53:04;3.50;;;3.20;;
7450;SDS011;3767;42.688;23.360;2022-10-16T10:55:37;3.83;;;3.38;;
7450;SDS011;3767;42.688;23.360;2022-10-16T10:58:14;4.07;;;3.63;;
7450;SDS011;3767;42.688;23.360;2022-10-16T11:00:47;2.95;;;2.78;;
7450;SDS011;3767;42.688;23.360;2022-10-16T11:03:21;3.30;;;2.97;;
7450;SDS011;3767;42.688;23.360;2022-10-16T11:05:49;4.43;;;3.20;;
7450;SDS011;3767;42.688;23.360;2022-10-16T11:08:17;5.75;;;3.22;;
7450;SDS011;3767;42.688;23.360;2022-10-16T11:10:46;4.32;;;3.08;;
7450;SDS011;3767;42.688;23.360;2022-10-16T11:13:24;3.67;;;3.47;;
7450;SDS011;3767;42.688;23.360;2022-10-16T11:15:53;3.10;;;3.00;;
7450;SDS011;3767;42.688;23.360;2022-10-16T11:18:22;3.25;;;3.15;;
7450;SDS011;3767;42.688;23.360;2022-10-16T11:20:51;3.47;;;3.17;;
7450;SDS011;3767;42.688;23.360;2022-10-16T11:23:21;4.13;;;3.65;;
7450;SDS011;3767;42.688;23.360;2022-10-16T11:25:49;3.38;;;3.00;;
7450;SDS011;3767;42.688;23.360;2022-10-16T11:28:18;4.93;;;2.70;;
7450;SDS011;3767;42.688;23.360;2022-10-16T11:30:48;3.08;;;2.88;;
7450;SDS011;3767;42.688;23.360;2022-10-16T11:33:24;3.20;;;3.00;;
7450;SDS011;3767;42.688;23.360;2022-10-16T11:35:53;4.03;;;3.33;;
7450;SDS011;3767;42.688;23.360;2022-10-16T11:38:24;3.15;;;2.85;;
7450;SDS011;3767;42.688;23.360;2022-10-16T11:40:53;2.88;;;2.65;;
7450;SDS011;3767;42.688;23.360;2022-10-16T11:43:24;3.03;;;2.67;;
7450;SDS011;3767;42.688;23.360;2022-10-16T11:45:53;2.70;;;2.60;;
7450;SDS011;3767;42.688;23.360;2022-10-16T11:48:23;2.70;;;2.50;;
7450;SDS011;3767;42.688;23.360;2022-10-16T11:50:52;2.60;;;2.50;;
7450;SDS011;3767;42.688;23.360;2022-10-16T11:53:21;2.70;;;2.50;;
7450;SDS011;3767;42.688;23.360;2022-10-16T11:55:50;3.20;;;2.90;;
7450;SDS011;3767;42.688;23.360;2022-10-16T11:58:20;3.75;;;2.78;;
7450;SDS011;3767;42.688;23.360;2022-10-16T12:00:51;2.53;;;2.42;;
7450;SDS011;3767;42.688;23.360;2022-10-16T12:03:21;3.45;;;2.85;;
7450;SDS011;3767;42.688;23.360;2022-10-16T12:05:57;3.40;;;2.90;;
7450;SDS011;3767;42.688;23.360;2022-10-16T12:08:26;3.22;;;3.00;;
7450;SDS011;3767;42.688;23.360;2022-10-16T12:10:53;4.18;;;2.90;;
7450;SDS011;3767;42.688;23.360;2022-10-16T12:13:28;3.53;;;2.80;;
7450;SDS011;3767;42.688;23.360;2022-10-16T12:16:03;3.20;;;2.90;;
7450;SDS011;3767;42.688;23.360;2022-10-16T12:18:31;2.83;;;2.63;;
7450;SDS011;3767;42.688;23.360;2022-10-16T12:20:58;2.50;;;2.40;;
7450;SDS011;3767;42.688;23.360;2022-10-16T12:23:30;2.60;;;2.50;;
7450;SDS011;3767;42.688;23.360;2022-10-16T12:25:57;2.88;;;2.67;;
7450;SDS011;3767;42.688;23.360;2022-10-16T12:28:26;2.60;;;2.40;;
7450;SDS011;3767;42.688;23.360;2022-10-16T12:30:53;2.90;;;2.60;;
7450;SDS011;3767;42.688;23.360;2022-10-16T12:33:21;4.00;;;3.80;;
7450;SDS011;3767;42.688;23.360;2022-10-16T12:35:50;3.97;;;3.40;;
7450;SDS011;3767;42.688;23.360;2022-10-16T12:38:17;3.78;;;2.83;;
7450;SDS011;3767;42.688;23.360;2022-10-16T12:40:44;2.67;;;2.58;;
7450;SDS011;3767;42.688;23.360;2022-10-16T12:43:13;3.00;;;2.65;;
7450;SDS011;3767;42.688;23.360;2022-10-16T12:45:58;2.97;;;2.78;;
7450;SDS011;3767;42.688;23.360;2022-10-16T12:48:25;2.63;;;2.53;;
7450;SDS011;3767;42.688;23.360;2022-10-16T12:50:53;2.80;;;2.70;;
7450;SDS011;3767;42.688;23.360;2022-10-16T12:53:20;5.78;;;2.58;;
7450;SDS011;3767;42.688;23.360;2022-10-16T12:55:51;4.13;;;2.90;;
7450;SDS011;3767;42.688;23.360;2022-10-16T12:58:22;3.05;;;2.95;;
7450;SDS011;3767;42.688;23.360;2022-10-16T13:00:54;2.88;;;2.50;;
7450;SDS011;3767;42.688;23.360;2022-10-16T13:03:25;2.85;;;2.60;;
7450;SDS011;3767;42.688;23.360;2022-10-16T13:06:02;2.50;;;2.38;;
7450;SDS011;3767;42.688;23.360;2022-10-16T13:08:36;2.60;;;2.40;;
7450;SDS011;3767;42.688;23.360;2022-10-16T13:11:05;2.47;;;2.35;;
7450;SDS011;3767;42.688;23.360;2022-10-16T13:13:38;4.75;;;2.95;;
7450;SDS011;3767;42.688;23.360;2022-10-16T13:16:12;2.90;;;2.50;;
7450;SDS011;3767;42.688;23.360;2022-10-16T13:18:43;4.35;;;2.78;;
7450;SDS011;3767;42.688;23.360;2022-10-16T13:21:16;3.10;;;2.70;;
7450;SDS011;3767;42.688;23.360;2022-10-16T13:23:47;3.55;;;2.45;;
7450;SDS011;3767;42.688;23.360;2022-10-16T13:26:18;4.88;;;2.70;;
7450;SDS011;3767;42.688;23.360;2022-10-16T13:28:48;4.22;;;3.92;;
7450;SDS011;3767;42.688;23.360;2022-10-16T13:31:16;2.90;;;2.70;;
7450;SDS011;3767;42.688;23.360;2022-10-16T13:33:45;4.45;;;3.75;;
7450;SDS011;3767;42.688;23.360;2022-10-16T13:36:19;3.63;;;2.30;;
7450;SDS011;3767;42.688;23.360;2022-10-16T13:38:46;2.53;;;2.38;;
7450;SDS011;3767;42.688;23.360;2022-10-16T13:41:13;5.18;;;2.95;;
7450;SDS011;3767;42.688;23.360;2022-10-16T13:43:41;2.40;;;2.20;;
7450;SDS011;3767;42.688;23.360;2022-10-16T13:46:11;3.30;;;2.30;;
7450;SDS011;3767;42.688;23.360;2022-10-16T13:48:38;3.97;;;2.20;;
7450;SDS011;3767;42.688;23.360;2022-10-16T13:51:06;2.35;;;2.15;;
7450;SDS011;3767;42.688;23.360;2022-10-16T13:53:35;7.93;;;2.50;;
7450;SDS011;3767;42.688;23.360;2022-10-16T13:56:02;4.03;;;2.63;;
7450;SDS011;3767;42.688;23.360;2022-10-16T13:58:29;2.42;;;2.22;;
7450;SDS011;3767;42.688;23.360;2022-10-16T14:00:56;3.33;;;2.72;;
7450;SDS011;3767;42.688;23.360;2022-10-16T14:03:23;3.72;;;2.70;;
7450;SDS011;3767;42.688;23.360;2022-10-16T14:05:51;2.58;;;2.47;;
7450;SDS011;3767;42.688;23.360;2022-10-16T14:08:18;2.42;;;2.28;;
7450;SDS011;3767;42.688;23.360;2022-10-16T14:10:48;2.53;;;2.33;;
7450;SDS011;3767;42.688;23.360;2022-10-16T14:13:16;2.35;;;1.98;;
7450;SDS011;3767;42.688;23.360;2022-10-16T14:15:45;2.53;;;2.22;;
7450;SDS011;3767;42.688;23.360;2022-10-16T14:18:14;2.40;;;2.30;;
7450;SDS011;3767;42.688;23.360;2022-10-16T14:20:41;2.05;;;1.95;;
7450;SDS011;3767;42.688;23.360;2022-10-16T14:23:18;2.80;;;2.10;;
7450;SDS011;3767;42.688;23.360;2022-10-16T14:25:45;2.92;;;2.67;;
7450;SDS011;3767;42.688;23.360;2022-10-16T14:28:16;2.70;;;2.40;;
7450;SDS011;3767;42.688;23.360;2022-10-16T14:30:49;3.30;;;2.40;;
7450;SDS011;3767;42.688;23.360;2022-10-16T14:33:19;3.38;;;2.63;;
7450;SDS011;3767;42.688;23.360;2022-10-16T14:35:46;2.60;;;2.40;;
7450;SDS011;3767;42.688;23.360;2022-10-16T14:38:25;5.72;;;2.60;;
7450;SDS011;3767;42.688;23.360;2022-10-16T14:40:51;4.10;;;2.42;;
7450;SDS011;3767;42.688;23.360;2022-10-16T14:43:21;4.97;;;2.72;;
7450;SDS011;3767;42.688;23.360;2022-10-16T14:45:50;2.60;;;2.50;;
7450;SDS011;3767;42.688;23.360;2022-10-16T14:48:18;2.70;;;2.50;;
7450;SDS011;3767;42.688;23.360;2022-10-16T14:50:45;3.53;;;2.45;;
7450;SDS011;3767;42.688;23.360;2022-10-16T14:53:12;3.35;;;3.03;;
7450;SDS011;3767;42.688;23.360;2022-10-16T14:55:39;4.18;;;2.75;;
7450;SDS011;3767;42.688;23.360;2022-10-16T14:58:06;2.78;;;2.65;;
7450;SDS011;3767;42.688;23.360;2022-10-16T15:00:36;3.83;;;2.95;;
7450;SDS011;3767;42.688;23.360;2022-10-16T15:03:03;3.42;;;2.97;;
7450;SDS011;3767;42.688;23.360;2022-10-16T15:05:29;3.50;;;3.20;;